createdAt,value
2022-10-14T00:01:20.021Z,9.43
2022-10-14T00:03:47.430Z,9.10
2022-10-14T00:06:19.330Z,8.30
2022-10-14T00:08:47.506Z,10.93
2022-10-14T00:11:23.236Z,10.03
2022-10-14T00:13:54.667Z,7.77
2022-10-14T00:16:27.676Z,10.30
2022-10-14T00:18:54.713Z,8.60
2022-10-14T00:21:23.049Z,9.70
2022-10-14T00:23:50.686Z,9.97
2022-10-14T00:26:26.179Z,9.03
2022-10-14T00:28:53.877Z,8.10
2022-10-14T00:31:21.621Z,8.97
2022-10-14T00:33:48.760Z,8.43
2022-10-14T00:36:18.985Z,11.83
2022-10-14T00:38:47.013Z,10.50
2022-10-14T00:41:28.379Z,12.33
2022-10-14T00:44:15.098Z,10.90
2022-10-14T00:46:45.821Z,8.13
2022-10-14T00:49:23.254Z,8.47
2022-10-14T00:52:15.084Z,8.70
2022-10-14T00:55:05.612Z,8.07
2022-10-14T00:57:33.033Z,8.80
2022-10-14T01:00:10.968Z,7.83
2022-10-14T01:02:38.946Z,7.77
2022-10-14T01:05:10.303Z,9.27
2022-10-14T01:07:48.956Z,7.97
2022-10-14T01:10:33.286Z,7.23
2022-10-14T01:13:38.922Z,8.10
2022-10-14T01:16:22.497Z,7.90
2022-10-14T01:19:04.120Z,11.70
2022-10-14T01:21:47.873Z,8.40
2022-10-14T01:25:02.869Z,8.63
2022-10-14T01:28:06.435Z,12.20
2022-10-14T01:30:44.203Z,8.87
2022-10-14T01:33:23.945Z,12.27
2022-10-14T01:36:14.867Z,8.63
2022-10-14T01:38:51.929Z,9.30
2022-10-14T01:41:26.536Z,12.20
2022-10-14T01:43:57.884Z,9.10
2022-10-14T01:46:27.560Z,7.73
2022-10-14T01:49:07.345Z,8.97
2022-10-14T01:51:49.442Z,9.07
2022-10-14T01:54:24.017Z,8.43
2022-10-14T01:56:55.544Z,10.17
2022-10-14T01:59:24.689Z,8.77
2022-10-14T02:01:51.554Z,8.13
2022-10-14T02:04:22.166Z,9.47
2022-10-14T02:07:36.976Z,9.60
2022-10-14T02:10:21.158Z,10.17
2022-10-14T02:13:17.600Z,11.63
2022-10-14T02:16:15.635Z,9.30
2022-10-14T02:18:55.796Z,9.47
2022-10-14T02:21:51.868Z,10.57
2022-10-14T02:24:26.988Z,9.90
2022-10-14T02:26:59.942Z,8.83
2022-10-14T02:29:29.786Z,10.57
2022-10-14T02:32:04.306Z,10.47
2022-10-14T02:34:32.899Z,10.93
2022-10-14T02:37:01.512Z,11.87
2022-10-14T02:39:34.859Z,9.67
2022-10-14T02:42:01.982Z,9.53
2022-10-14T02:44:29.070Z,9.63
2022-10-14T02:46:56.815Z,9.37
2022-10-14T02:49:24.004Z,9.93
2022-10-14T02:51:50.797Z,13.40
2022-10-14T02:54:17.532Z,9.17
2022-10-14T02:56:44.311Z,9.10
2022-10-14T02:59:11.079Z,8.73
2022-10-14T03:01:38.131Z,10.30
2022-10-14T03:04:04.960Z,11.23
2022-10-14T03:06:31.687Z,13.40
2022-10-14T03:08:58.448Z,8.83
2022-10-14T03:11:25.222Z,9.67
2022-10-14T03:13:51.978Z,9.40
2022-10-14T03:16:18.884Z,9.63
2022-10-14T03:18:45.831Z,8.40
2022-10-14T03:21:12.649Z,8.23
2022-10-14T03:23:39.510Z,8.77
2022-10-14T03:26:08.527Z,8.53
2022-10-14T03:28:37.465Z,9.23
2022-10-14T03:31:04.384Z,9.73
2022-10-14T03:33:33.707Z,9.37
2022-10-14T03:36:00.978Z,7.83
2022-10-14T03:38:28.105Z,10.43
2022-10-14T03:40:54.934Z,7.63
2022-10-14T03:43:21.759Z,10.87
2022-10-14T03:45:48.646Z,9.57
2022-10-14T03:48:15.517Z,10.47
2022-10-14T03:50:42.348Z,8.37
2022-10-14T03:53:09.207Z,9.50
2022-10-14T03:55:36.044Z,10.70
2022-10-14T03:58:02.834Z,9.73
2022-10-14T04:00:29.841Z,10.77
2022-10-14T04:02:56.629Z,9.83
2022-10-14T04:05:23.350Z,9.03
2022-10-14T04:07:50.141Z,8.60
2022-10-14T04:10:16.982Z,10.00
2022-10-14T04:12:43.980Z,10.83
2022-10-14T04:15:10.850Z,9.67
2022-10-14T04:17:37.559Z,9.37
2022-10-14T04:20:05.065Z,11.67
2022-10-14T04:22:33.154Z,10.40
2022-10-14T04:24:59.917Z,11.63
2022-10-14T04:27:26.728Z,10.23
2022-10-14T04:29:53.604Z,11.40
2022-10-14T04:32:20.871Z,11.40
2022-10-14T04:34:47.909Z,9.27
2022-10-14T04:37:14.720Z,10.47
2022-10-14T04:39:41.555Z,12.33
2022-10-14T04:42:08.511Z,8.87
2022-10-14T04:44:35.269Z,10.53
2022-10-14T04:47:02.038Z,10.67
2022-10-14T04:49:28.774Z,9.77
2022-10-14T04:51:55.572Z,9.37
2022-10-14T04:54:22.443Z,9.93
2022-10-14T04:56:49.322Z,8.47
2022-10-14T04:59:16.184Z,10.37
2022-10-14T05:01:42.980Z,14.30
2022-10-14T05:04:09.728Z,9.50
2022-10-14T05:06:37.409Z,11.73
2022-10-14T05:09:06.013Z,10.23
2022-10-14T05:11:33.480Z,9.20
2022-10-14T05:14:00.235Z,9.43
2022-10-14T05:16:27.579Z,8.60
2022-10-14T05:18:54.727Z,8.67
2022-10-14T05:21:21.743Z,8.00
2022-10-14T05:23:48.657Z,9.70
2022-10-14T05:26:15.472Z,9.00
2022-10-14T05:28:42.579Z,8.43
2022-10-14T05:31:09.528Z,8.17
2022-10-14T05:33:37.069Z,7.93
2022-10-14T05:36:04.262Z,8.07
2022-10-14T05:38:34.473Z,8.33
2022-10-14T05:41:01.962Z,9.33
2022-10-14T05:43:32.342Z,8.10
2022-10-14T05:46:00.192Z,9.03
2022-10-14T05:48:27.347Z,9.90
2022-10-14T05:50:54.141Z,8.67
2022-10-14T05:53:21.051Z,7.33
2022-10-14T05:55:48.199Z,8.47
2022-10-14T05:58:15.387Z,10.90
2022-10-14T06:00:42.273Z,13.57
2022-10-14T06:03:12.029Z,9.90
2022-10-14T06:05:38.826Z,11.50
2022-10-14T06:08:06.188Z,11.13
2022-10-14T06:10:34.324Z,9.67
2022-10-14T06:13:01.162Z,9.97
2022-10-14T06:15:28.378Z,9.43
2022-10-14T06:17:55.258Z,10.13
2022-10-14T06:20:22.055Z,9.40
2022-10-14T06:22:48.892Z,11.00
2022-10-14T06:25:15.740Z,9.60
2022-10-14T06:27:42.664Z,9.03
2022-10-14T06:30:10.890Z,10.40
2022-10-14T06:32:37.821Z,10.03
2022-10-14T06:35:05.072Z,9.77
2022-10-14T06:37:31.944Z,11.30
2022-10-14T06:39:58.659Z,9.10
2022-10-14T06:42:25.840Z,11.43
2022-10-14T06:44:53.088Z,10.10
2022-10-14T06:47:19.853Z,10.20
2022-10-14T06:49:46.648Z,9.97
2022-10-14T06:52:13.471Z,15.20
2022-10-14T06:54:42.565Z,11.33
2022-10-14T06:57:11.491Z,13.50
2022-10-14T06:59:39.148Z,12.33
2022-10-14T07:02:06.543Z,17.77
2022-10-14T07:04:33.334Z,11.67
2022-10-14T07:07:00.194Z,8.87
2022-10-14T07:09:26.963Z,13.17
2022-10-14T07:11:53.747Z,10.73
2022-10-14T07:14:21.186Z,11.70
2022-10-14T07:16:47.942Z,13.67
2022-10-14T07:19:15.643Z,11.13
2022-10-14T07:21:42.913Z,12.80
2022-10-14T07:24:10.247Z,9.37
2022-10-14T07:26:37.054Z,16.10
2022-10-14T07:29:05.845Z,10.57
2022-10-14T07:31:33.065Z,20.43
2022-10-14T07:34:01.500Z,12.00
2022-10-14T07:36:28.418Z,18.00
2022-10-14T07:38:55.303Z,12.57
2022-10-14T07:41:25.002Z,22.77
2022-10-14T07:44:05.150Z,21.90
2022-10-14T07:46:35.565Z,17.50
2022-10-14T07:49:11.480Z,16.20
2022-10-14T07:51:39.937Z,21.57
2022-10-14T07:54:11.247Z,13.67
2022-10-14T07:56:40.960Z,13.67
2022-10-14T07:59:07.966Z,11.63
2022-10-14T08:01:34.791Z,13.10
2022-10-14T08:04:01.995Z,16.27
2022-10-14T08:06:28.725Z,10.80
2022-10-14T08:08:55.459Z,16.63
2022-10-14T08:11:27.123Z,15.33
2022-10-14T08:13:54.835Z,11.40
2022-10-14T08:16:27.823Z,13.33
2022-10-14T08:18:58.662Z,12.13
2022-10-14T08:21:28.176Z,10.20
2022-10-14T08:23:55.526Z,9.80
2022-10-14T08:26:38.069Z,13.87
2022-10-14T08:29:10.444Z,12.43
2022-10-14T08:31:37.567Z,13.60
2022-10-14T08:34:04.821Z,16.83
2022-10-14T08:36:31.787Z,13.47
2022-10-14T08:38:58.634Z,16.20
2022-10-14T08:41:53.361Z,12.87
2022-10-14T08:44:25.001Z,17.33
2022-10-14T08:46:59.439Z,20.70
2022-10-14T08:49:32.453Z,22.73
2022-10-14T08:52:09.317Z,21.87
2022-10-14T08:54:41.392Z,15.50
2022-10-14T08:57:18.118Z,14.93
2022-10-14T08:59:45.304Z,15.77
2022-10-14T09:02:44.159Z,16.53
2022-10-14T09:05:22.020Z,17.93
2022-10-14T09:07:52.527Z,20.00
2022-10-14T09:10:31.941Z,14.23
2022-10-14T09:13:18.643Z,17.77
2022-10-14T09:15:53.187Z,11.23
2022-10-14T09:18:39.847Z,19.07
2022-10-14T09:21:52.049Z,16.73
2022-10-14T09:24:32.324Z,14.53
2022-10-14T09:27:16.142Z,13.83
2022-10-14T09:30:01.026Z,15.53
2022-10-14T09:32:31.570Z,14.43
2022-10-14T09:35:00.037Z,9.77
2022-10-14T09:37:34.240Z,12.30
2022-10-14T09:40:13.305Z,10.10
2022-10-14T09:43:11.839Z,8.10
2022-10-14T09:46:01.395Z,12.23
2022-10-14T09:48:49.032Z,9.03
2022-10-14T09:51:34.628Z,10.63
2022-10-14T09:54:04.609Z,9.23
2022-10-14T09:56:41.910Z,8.97
2022-10-14T09:59:24.183Z,8.73
2022-10-14T10:01:59.281Z,9.17
2022-10-14T10:04:31.857Z,7.27
2022-10-14T10:07:03.556Z,8.03
2022-10-14T10:12:32.425Z,9.63
2022-10-14T10:15:07.071Z,7.70
2022-10-14T10:17:40.927Z,9.43
2022-10-14T10:20:33.688Z,6.27
2022-10-14T10:23:25.182Z,5.27
2022-10-14T10:25:52.704Z,5.93
2022-10-14T10:28:31.739Z,9.10
2022-10-14T10:31:17.499Z,5.67
2022-10-14T10:34:16.714Z,9.60
2022-10-14T10:36:53.420Z,6.17
2022-10-14T10:39:38.709Z,6.80
2022-10-14T10:42:38.354Z,8.57
2022-10-14T10:45:16.038Z,7.70
2022-10-14T10:48:13.440Z,6.53
2022-10-14T10:51:07.735Z,6.17
2022-10-14T10:54:08.136Z,9.73
2022-10-14T10:56:52.461Z,6.20
2022-10-14T10:59:44.537Z,7.03
2022-10-14T11:02:27.158Z,7.03
2022-10-14T11:05:22.088Z,5.67
2022-10-14T11:08:13.446Z,6.57
2022-10-14T11:11:18.219Z,6.23
2022-10-14T11:14:19.241Z,6.43
2022-10-14T11:17:07.715Z,6.53
2022-10-14T11:19:58.857Z,8.33
2022-10-14T11:23:04.706Z,6.17
2022-10-14T11:26:14.161Z,5.80
2022-10-14T11:29:01.602Z,6.07
2022-10-14T11:31:40.642Z,11.57
2022-10-14T11:35:08.412Z,7.47
2022-10-14T11:37:52.951Z,7.10
2022-10-14T11:40:50.370Z,5.23
2022-10-14T11:43:49.549Z,5.27
2022-10-14T11:46:32.342Z,5.63
2022-10-14T11:49:04.442Z,6.57
2022-10-14T11:51:41.256Z,5.33
2022-10-14T11:54:43.489Z,5.00
2022-10-14T11:57:25.498Z,4.67
2022-10-14T12:00:04.579Z,4.90
2022-10-14T12:03:02.885Z,4.57
2022-10-14T12:05:47.687Z,5.63
2022-10-14T12:08:22.603Z,8.40
2022-10-14T12:11:04.720Z,7.77
2022-10-14T12:13:46.746Z,7.67
2022-10-14T12:16:23.858Z,6.37
2022-10-14T12:18:56.876Z,5.73
2022-10-14T12:21:46.877Z,5.40
2022-10-14T12:24:30.645Z,4.20
2022-10-14T12:27:09.495Z,6.70
2022-10-14T12:29:41.784Z,4.60
2022-10-14T12:32:20.598Z,4.50
2022-10-14T12:34:57.197Z,4.00
2022-10-14T12:37:32.740Z,4.30
2022-10-14T12:40:02.732Z,4.70
2022-10-14T12:42:48.023Z,7.33
2022-10-14T12:45:21.956Z,6.57
2022-10-14T12:48:12.853Z,4.20
2022-10-14T12:50:49.724Z,4.13
2022-10-14T12:53:30.571Z,5.97
2022-10-14T12:56:01.125Z,4.03
2022-10-14T12:58:57.707Z,4.23
2022-10-14T13:01:24.623Z,7.30
2022-10-14T13:04:20.029Z,5.73
2022-10-14T13:07:38.848Z,3.60
2022-10-14T13:10:45.878Z,3.60
2022-10-14T13:13:52.420Z,3.50
2022-10-14T13:16:25.237Z,5.30
2022-10-14T13:19:02.631Z,3.27
2022-10-14T13:21:35.171Z,3.50
2022-10-14T13:24:30.552Z,4.33
2022-10-14T13:27:15.391Z,4.30
2022-10-14T13:30:34.032Z,7.00
2022-10-14T13:33:39.073Z,4.17
2022-10-14T13:37:02.970Z,3.37
2022-10-14T13:39:34.296Z,3.10
2022-10-14T13:42:02.317Z,3.20
2022-10-14T13:44:29.644Z,3.57
2022-10-14T13:46:56.582Z,2.93
2022-10-14T13:49:38.237Z,3.30
2022-10-14T13:52:13.839Z,2.53
2022-10-14T13:54:40.571Z,2.50
2022-10-14T13:57:47.975Z,2.50
2022-10-14T14:00:43.138Z,3.47
2022-10-14T14:03:26.027Z,3.20
2022-10-14T14:05:53.905Z,2.90
2022-10-14T14:08:41.129Z,3.03
2022-10-14T14:11:17.709Z,2.87
2022-10-14T14:14:16.889Z,2.67
2022-10-14T14:16:59.808Z,2.80
2022-10-14T14:19:36.660Z,2.90
2022-10-14T14:22:27.241Z,2.80
2022-10-14T14:25:33.541Z,2.97
2022-10-14T14:28:05.950Z,2.83
2022-10-14T14:30:39.027Z,2.93
2022-10-14T14:33:18.060Z,5.50
2022-10-14T14:35:58.077Z,2.60
2022-10-14T14:38:32.127Z,4.27
2022-10-14T14:41:23.687Z,3.70
2022-10-14T14:44:24.094Z,2.80
2022-10-14T14:46:45.313Z,10.80
2022-10-14T14:49:17.944Z,2.70
2022-10-14T14:51:45.958Z,3.93
2022-10-14T14:54:20.240Z,2.30
2022-10-14T14:57:15.293Z,2.90
2022-10-14T15:00:01.296Z,4.27
2022-10-14T15:02:31.166Z,3.07
2022-10-14T15:05:07.188Z,2.83
2022-10-14T15:07:35.825Z,5.93
2022-10-14T15:10:07.476Z,3.73
2022-10-14T15:12:42.421Z,7.50
2022-10-14T15:15:32.616Z,3.90
2022-10-14T15:18:32.164Z,3.80
2022-10-14T15:21:20.115Z,3.80
2022-10-14T15:23:49.805Z,6.13
2022-10-14T15:26:35.859Z,3.33
2022-10-14T15:32:13.923Z,4.70
2022-10-14T15:34:41.171Z,4.60
2022-10-14T15:37:13.563Z,4.20
2022-10-14T15:39:40.300Z,3.90
2022-10-14T15:42:12.435Z,3.63
2022-10-14T15:44:39.271Z,3.90
2022-10-14T15:47:22.288Z,5.50
2022-10-14T15:49:49.149Z,6.97
2022-10-14T15:52:35.924Z,4.97
2022-10-14T15:55:23.991Z,4.90
2022-10-14T15:57:52.817Z,4.80
2022-10-14T16:00:23.138Z,4.57
2022-10-14T16:02:59.319Z,3.80
2022-10-14T16:05:29.432Z,3.63
2022-10-14T16:07:57.582Z,4.10
2022-10-14T16:10:28.108Z,4.10
2022-10-14T16:12:57.595Z,3.50
2022-10-14T16:15:52.050Z,3.57
2022-10-14T16:18:18.901Z,3.47
2022-10-14T16:20:46.194Z,3.57
2022-10-14T16:23:18.612Z,3.10
2022-10-14T16:25:49.301Z,4.30
2022-10-14T16:28:17.700Z,3.13
2022-10-14T16:30:49.214Z,2.97
2022-10-14T16:33:18.763Z,4.23
2022-10-14T16:35:54.216Z,3.43
2022-10-14T16:38:22.616Z,5.57
2022-10-14T16:41:01.691Z,4.33
2022-10-14T16:43:29.779Z,3.13
2022-10-14T16:46:03.497Z,3.20
2022-10-14T16:48:33.541Z,2.90
2022-10-14T16:51:03.909Z,3.13
2022-10-14T16:53:41.908Z,2.60
2022-10-14T16:56:41.982Z,2.60
2022-10-14T16:59:12.760Z,2.93
2022-10-14T17:01:39.710Z,2.90
2022-10-14T17:04:06.914Z,3.20
2022-10-14T17:06:33.695Z,3.10
2022-10-14T17:09:00.695Z,3.20
2022-10-14T17:11:29.146Z,3.23
2022-10-14T17:13:58.539Z,3.87
2022-10-14T17:16:28.515Z,3.23
2022-10-14T17:18:57.151Z,3.20
2022-10-14T17:21:27.998Z,3.00
2022-10-14T17:23:58.155Z,3.50
2022-10-14T17:26:24.909Z,3.73
2022-10-14T17:28:51.863Z,3.20
2022-10-14T17:31:21.445Z,4.60
2022-10-14T17:33:49.584Z,3.70
2022-10-14T17:36:27.754Z,5.53
2022-10-14T17:38:55.764Z,3.00
2022-10-14T17:41:25.342Z,2.70
2022-10-14T17:43:54.812Z,4.53
2022-10-14T17:46:24.839Z,3.93
2022-10-14T17:48:58.156Z,3.40
2022-10-14T17:51:28.045Z,4.43
2022-10-14T17:53:58.311Z,4.57
2022-10-14T17:56:27.358Z,10.53
2022-10-14T17:59:00.540Z,3.20
2022-10-14T18:01:37.710Z,3.53
2022-10-14T18:04:10.900Z,2.93
2022-10-14T18:06:37.745Z,3.13
2022-10-14T18:09:09.328Z,2.60
2022-10-14T18:12:07.045Z,3.90
2022-10-14T18:14:28.363Z,3.67
2022-10-14T18:16:55.193Z,3.93
2022-10-14T18:19:22.066Z,4.43
2022-10-14T18:21:48.880Z,4.80
2022-10-14T18:24:15.628Z,4.20
2022-10-14T18:26:42.403Z,3.43
2022-10-14T18:29:09.585Z,3.20
2022-10-14T18:31:36.734Z,3.23
2022-10-14T18:34:03.587Z,2.97
2022-10-14T18:36:32.931Z,6.07
2022-10-14T18:39:07.370Z,7.00
2022-10-14T18:41:35.030Z,3.73
2022-10-14T18:44:01.818Z,2.83
2022-10-14T18:46:32.420Z,2.30
2022-10-14T18:49:01.396Z,3.40
2022-10-14T18:51:33.193Z,3.50
2022-10-14T18:54:03.926Z,3.50
2022-10-14T18:56:36.409Z,3.47
2022-10-14T18:59:11.128Z,3.00
2022-10-14T19:01:40.157Z,3.20
2022-10-14T19:04:19.715Z,2.67
2022-10-14T19:06:50.141Z,3.97
2022-10-14T19:09:21.577Z,2.77
2022-10-14T19:11:52.600Z,2.53
2022-10-14T19:14:20.664Z,4.40
2022-10-14T19:16:49.396Z,2.67
2022-10-14T19:19:19.586Z,3.10
2022-10-14T19:21:54.192Z,3.33
2022-10-14T19:24:22.630Z,3.07
2022-10-14T19:26:54.066Z,3.00
2022-10-14T19:29:20.977Z,3.23
2022-10-14T19:31:50.907Z,3.30
2022-10-14T19:34:17.690Z,3.37
2022-10-14T19:36:45.793Z,3.37
2022-10-14T19:39:16.822Z,3.00
2022-10-14T19:41:46.212Z,3.37
2022-10-14T19:44:15.786Z,2.63
2022-10-14T19:46:44.009Z,2.57
2022-10-14T19:49:13.323Z,2.90
2022-10-14T19:51:40.560Z,3.07
2022-10-14T19:54:07.703Z,2.50
2022-10-14T19:56:34.732Z,2.77
2022-10-14T19:59:01.830Z,3.33
2022-10-14T20:01:30.741Z,2.93
2022-10-14T20:04:01.165Z,2.83
2022-10-14T20:06:33.772Z,2.87
2022-10-14T20:09:01.726Z,2.87
2022-10-14T20:11:29.053Z,3.37
2022-10-14T20:13:55.881Z,2.87
2022-10-14T20:16:22.905Z,5.17
2022-10-14T20:18:49.714Z,2.70
2022-10-14T20:21:16.918Z,4.73
2022-10-14T20:23:45.017Z,3.40
2022-10-14T20:26:19.623Z,3.27
2022-10-14T20:28:47.499Z,3.37
2022-10-14T20:31:18.479Z,3.20
2022-10-14T20:33:45.740Z,2.80
2022-10-14T20:36:21.445Z,3.00
2022-10-14T20:38:49.602Z,3.13
2022-10-14T20:41:21.442Z,2.90
2022-10-14T20:43:48.712Z,3.50
2022-10-14T20:46:16.678Z,3.27
2022-10-14T20:48:44.018Z,3.10
2022-10-14T20:51:17.883Z,3.23
2022-10-14T20:53:44.752Z,3.67
2022-10-14T20:56:13.492Z,5.70
2022-10-14T20:58:41.101Z,5.73
2022-10-14T21:01:17.782Z,4.27
2022-10-14T21:03:46.587Z,4.47
2022-10-14T21:06:17.445Z,4.23
2022-10-14T21:08:45.003Z,3.83
2022-10-14T21:11:15.779Z,4.67
2022-10-14T21:13:59.523Z,3.27
2022-10-14T21:16:29.294Z,3.53
2022-10-14T21:19:01.678Z,3.97
2022-10-14T21:21:35.142Z,3.33
2022-10-14T21:24:01.956Z,3.97
2022-10-14T21:26:30.255Z,4.23
2022-10-14T21:28:57.311Z,6.43
2022-10-14T21:31:25.239Z,4.70
2022-10-14T21:34:04.134Z,4.03
2022-10-14T21:36:32.649Z,3.90
2022-10-14T21:39:01.498Z,3.47
2022-10-14T21:41:28.727Z,4.30
2022-10-14T21:43:58.819Z,4.23
2022-10-14T21:46:26.863Z,3.90
2022-10-14T21:48:57.111Z,4.13
2022-10-14T21:51:27.251Z,3.60
2022-10-14T21:53:54.534Z,3.60
2022-10-14T21:56:22.486Z,3.40
2022-10-14T21:58:49.619Z,3.97
2022-10-14T22:01:24.086Z,3.80
2022-10-14T22:04:00.957Z,3.80
2022-10-14T22:06:28.384Z,4.17
2022-10-14T22:08:58.354Z,3.93
2022-10-14T22:11:32.691Z,3.50
2022-10-14T22:14:02.424Z,3.60
2022-10-14T22:16:29.755Z,4.30
2022-10-14T22:19:01.758Z,5.03
2022-10-14T22:21:31.712Z,6.43
2022-10-14T22:23:58.954Z,4.80
2022-10-14T22:26:28.476Z,4.47
2022-10-14T22:29:05.967Z,6.20
2022-10-14T22:31:34.089Z,4.60
2022-10-14T22:34:04.260Z,5.97
2022-10-14T22:36:33.095Z,5.23
2022-10-14T22:39:05.756Z,4.70
2022-10-14T22:41:35.671Z,8.73
2022-10-14T22:44:04.842Z,4.83
2022-10-14T22:46:34.979Z,6.20
2022-10-14T22:49:01.985Z,4.10
2022-10-14T22:51:34.866Z,4.00
2022-10-14T22:54:02.251Z,3.93
2022-10-14T22:56:31.280Z,3.47
2022-10-14T22:59:10.021Z,3.47
2022-10-14T23:01:38.620Z,3.70
2022-10-14T23:04:08.256Z,3.43
2022-10-14T23:06:35.787Z,3.83
2022-10-14T23:09:03.417Z,3.57
2022-10-14T23:11:31.974Z,3.23
2022-10-14T23:14:01.460Z,3.60
2022-10-14T23:16:31.560Z,3.27
2022-10-14T23:18:59.234Z,3.20
2022-10-14T23:21:33.525Z,2.80
2022-10-14T23:24:04.042Z,9.77
2022-10-14T23:26:34.322Z,3.13
2022-10-14T23:29:04.963Z,3.00
2022-10-14T23:31:34.636Z,2.83
2022-10-14T23:34:05.589Z,3.73
2022-10-14T23:36:32.637Z,3.27
2022-10-14T23:38:59.978Z,3.00
2022-10-14T23:41:26.927Z,4.03
2022-10-14T23:43:54.093Z,4.37
2022-10-14T23:46:21.081Z,3.60
2022-10-14T23:48:55.849Z,4.50
2022-10-14T23:51:34.098Z,3.60
2022-10-14T23:54:00.926Z,3.93
2022-10-14T23:56:27.753Z,3.37
2022-10-14T23:58:54.693Z,4.47
